createdAt,value
2022-09-14T00:02:04.786Z,7.80
2022-09-14T00:05:26.916Z,7.22
2022-09-14T00:08:54.163Z,6.50
2022-09-14T00:12:16.581Z,6.00
2022-09-14T00:15:40.327Z,6.45
2022-09-14T00:19:06.354Z,6.47
2022-09-14T00:22:28.829Z,7.05
2022-09-14T00:25:51.676Z,7.70
2022-09-14T00:29:13.712Z,7.40
2022-09-14T00:32:35.649Z,7.55
2022-09-14T00:36:13.877Z,7.65
2022-09-14T00:39:36.772Z,8.93
2022-09-14T00:42:58.774Z,8.60
2022-09-14T00:46:20.999Z,8.93
2022-09-14T00:49:44.217Z,9.52
2022-09-14T00:53:06.533Z,9.80
2022-09-14T00:56:28.769Z,9.50
2022-09-14T00:59:52.835Z,9.25
2022-09-14T01:03:15.092Z,9.50
2022-09-14T01:06:37.027Z,10.68
2022-09-14T01:10:13.706Z,11.35
2022-09-14T01:13:44.677Z,10.15
2022-09-14T01:17:18.148Z,11.10
2022-09-14T01:21:12.387Z,10.95
2022-09-14T01:24:53.122Z,10.73
2022-09-14T01:32:02.627Z,12.10
2022-09-14T01:35:38.285Z,10.93
2022-09-14T01:39:00.922Z,11.15
2022-09-14T01:42:25.271Z,10.68
2022-09-14T01:45:51.869Z,10.68
2022-09-14T01:49:32.266Z,10.05
2022-09-14T01:53:09.621Z,9.70
2022-09-14T01:56:38.984Z,9.95
2022-09-14T02:00:07.287Z,11.00
2022-09-14T02:03:37.342Z,10.95
2022-09-14T02:06:59.415Z,12.68
2022-09-14T02:10:22.840Z,13.18
2022-09-14T02:13:44.905Z,14.73
2022-09-14T02:17:08.375Z,12.88
2022-09-14T02:20:48.139Z,12.45
2022-09-14T02:24:12.424Z,12.48
2022-09-14T02:27:34.410Z,13.55
2022-09-14T02:31:31.576Z,13.32
2022-09-14T02:35:12.259Z,13.30
2022-09-14T02:38:45.753Z,13.13
2022-09-14T02:42:13.831Z,13.80
2022-09-14T02:45:54.573Z,12.93
2022-09-14T02:49:51.382Z,12.32
2022-09-14T02:53:55.897Z,12.07
2022-09-14T02:57:18.144Z,12.43
2022-09-14T03:00:43.828Z,11.60
2022-09-14T03:04:05.839Z,12.18
2022-09-14T03:07:27.825Z,11.50
2022-09-14T03:10:49.897Z,11.18
2022-09-14T03:14:12.273Z,11.93
2022-09-14T03:17:34.294Z,11.63
2022-09-14T03:21:05.169Z,11.25
2022-09-14T03:24:27.206Z,11.68
2022-09-14T03:27:59.037Z,12.15
2022-09-14T03:31:21.543Z,11.85
2022-09-14T03:34:43.639Z,11.43
2022-09-14T03:38:05.601Z,12.00
2022-09-14T03:41:28.588Z,12.27
2022-09-14T03:44:50.532Z,12.23
2022-09-14T03:48:15.438Z,12.80
2022-09-14T03:51:37.565Z,12.98
2022-09-14T03:54:59.522Z,12.93
2022-09-14T03:58:22.939Z,13.98
2022-09-14T04:01:45.065Z,14.73
2022-09-14T04:05:07.874Z,14.52
2022-09-14T04:08:29.872Z,13.02
2022-09-14T04:11:51.861Z,12.52
2022-09-14T04:15:13.835Z,13.15
2022-09-14T04:18:36.059Z,14.02
2022-09-14T04:21:58.139Z,14.55
2022-09-14T04:25:23.877Z,15.43
2022-09-14T04:28:47.657Z,14.82
2022-09-14T04:32:11.203Z,13.57
2022-09-14T04:35:38.310Z,14.20
2022-09-14T04:39:02.516Z,14.27
2022-09-14T04:42:24.619Z,15.05
2022-09-14T04:45:46.671Z,14.27
2022-09-14T04:49:09.457Z,15.50
2022-09-14T04:52:32.081Z,15.88
2022-09-14T04:55:58.745Z,15.18
2022-09-14T04:59:20.743Z,16.10
2022-09-14T05:02:43.089Z,16.27
2022-09-14T05:06:16.872Z,17.35
2022-09-14T05:09:38.819Z,17.13
2022-09-14T05:13:00.787Z,17.13
2022-09-14T05:16:29.312Z,16.75
2022-09-14T05:19:51.961Z,16.85
2022-09-14T05:23:14.036Z,17.80
2022-09-14T05:26:35.980Z,16.70
2022-09-14T05:29:58.722Z,17.30
2022-09-14T05:33:21.829Z,17.90
2022-09-14T05:36:44.089Z,18.63
2022-09-14T05:40:07.732Z,17.90
2022-09-14T05:43:31.089Z,17.98
2022-09-14T05:46:54.261Z,17.92
2022-09-14T05:50:17.358Z,16.80
2022-09-14T05:53:40.903Z,18.10
2022-09-14T05:57:05.109Z,17.77
2022-09-14T06:00:27.780Z,17.20
2022-09-14T06:03:53.482Z,15.20
2022-09-14T06:07:18.685Z,12.93
2022-09-14T06:10:41.150Z,14.80
2022-09-14T06:14:03.696Z,14.10
2022-09-14T06:17:25.749Z,12.25
2022-09-14T06:20:52.163Z,12.50
2022-09-14T06:24:14.180Z,11.82
2022-09-14T06:27:36.202Z,11.30
2022-09-14T06:30:58.526Z,11.10
2022-09-14T06:34:20.525Z,10.02
2022-09-14T06:37:42.434Z,9.90
2022-09-14T06:41:07.008Z,9.60
2022-09-14T06:44:28.969Z,8.23
2022-09-14T06:47:51.170Z,8.88
2022-09-14T06:51:22.177Z,10.18
2022-09-14T06:54:44.134Z,9.95
2022-09-14T06:58:07.737Z,10.00
2022-09-14T07:01:30.085Z,9.07
2022-09-14T07:04:52.460Z,9.18
2022-09-14T07:08:14.408Z,10.05
2022-09-14T07:11:37.175Z,9.75
2022-09-14T07:14:59.120Z,9.27
2022-09-14T07:18:22.314Z,10.52
2022-09-14T07:21:44.394Z,11.70
2022-09-14T07:25:07.077Z,12.27
2022-09-14T07:28:29.281Z,10.10
2022-09-14T07:31:53.985Z,9.98
2022-09-14T07:35:16.003Z,10.43
2022-09-14T07:38:53.847Z,10.25
2022-09-14T07:42:15.959Z,9.77
2022-09-14T07:45:39.697Z,9.05
2022-09-14T07:49:03.147Z,7.88
2022-09-14T07:52:25.210Z,8.95
2022-09-14T07:55:47.368Z,8.45
2022-09-14T08:02:58.056Z,6.00
2022-09-14T08:06:22.569Z,6.43
2022-09-14T08:09:45.848Z,6.35
2022-09-14T08:13:09.116Z,5.10
2022-09-14T08:16:32.793Z,5.60
2022-09-14T08:19:55.733Z,5.95
2022-09-14T08:23:17.663Z,5.50
2022-09-14T08:26:40.860Z,5.88
2022-09-14T08:30:03.504Z,4.63
2022-09-14T08:33:27.038Z,5.18
2022-09-14T08:36:51.140Z,5.38
2022-09-14T08:40:14.807Z,4.70
2022-09-14T08:43:40.232Z,5.13
2022-09-14T08:47:09.205Z,4.10
2022-09-14T08:50:34.741Z,4.00
2022-09-14T08:54:01.879Z,3.92
2022-09-14T08:57:52.045Z,4.38
2022-09-14T09:01:26.266Z,4.85
2022-09-14T09:05:26.188Z,5.68
2022-09-14T09:09:14.129Z,6.13
2022-09-14T09:12:50.945Z,5.85
2022-09-14T09:16:18.659Z,6.60
2022-09-14T09:20:07.216Z,6.72
2022-09-14T09:23:32.176Z,6.88
2022-09-14T09:26:54.576Z,6.10
2022-09-14T09:30:17.264Z,5.93
2022-09-14T09:33:39.496Z,6.68
2022-09-14T09:37:17.525Z,8.45
2022-09-14T09:40:45.022Z,7.28
2022-09-14T09:44:11.896Z,8.32
2022-09-14T09:47:41.148Z,7.38
2022-09-14T09:51:24.355Z,8.40
2022-09-14T09:54:54.297Z,8.70
2022-09-14T10:01:57.715Z,8.50
2022-09-14T10:05:28.959Z,8.10
2022-09-14T10:08:53.890Z,7.75
2022-09-14T10:12:17.034Z,7.60
2022-09-14T10:15:40.921Z,6.55
2022-09-14T10:19:03.618Z,7.03
2022-09-14T10:22:35.097Z,6.43
2022-09-14T10:26:19.134Z,5.28
2022-09-14T10:29:46.506Z,5.40
2022-09-14T10:33:18.994Z,5.10
2022-09-14T10:36:51.320Z,5.10
2022-09-14T10:40:20.395Z,5.30
2022-09-14T10:44:01.263Z,5.70
2022-09-14T10:48:06.375Z,5.25
2022-09-14T10:51:58.134Z,4.75
2022-09-14T10:56:01.562Z,3.40
2022-09-14T10:59:47.487Z,3.42
2022-09-14T11:03:46.118Z,4.30
2022-09-14T11:07:30.980Z,3.47
2022-09-14T11:11:24.019Z,3.20
2022-09-14T11:15:17.988Z,3.78
2022-09-14T11:18:53.992Z,3.13
2022-09-14T11:22:34.396Z,2.80
2022-09-14T11:26:02.687Z,2.20
2022-09-14T11:29:46.689Z,2.55
2022-09-14T11:33:20.420Z,2.88
2022-09-14T11:36:51.111Z,2.30
2022-09-14T11:40:35.068Z,2.20
2022-09-14T11:44:03.965Z,2.22
2022-09-14T11:47:29.232Z,1.55
2022-09-14T11:51:23.024Z,2.00
2022-09-14T11:54:47.092Z,1.90
2022-09-14T11:58:24.152Z,1.85
2022-09-14T12:01:46.220Z,2.58
2022-09-14T12:05:08.313Z,2.50
2022-09-14T12:08:33.152Z,3.05
2022-09-14T12:11:58.637Z,2.47
2022-09-14T12:15:26.694Z,2.78
2022-09-14T12:18:56.578Z,2.40
2022-09-14T12:26:06.735Z,2.47
2022-09-14T12:29:34.419Z,2.40
2022-09-14T12:32:57.047Z,2.10
2022-09-14T12:36:27.357Z,1.83
2022-09-14T12:40:24.412Z,1.75
2022-09-14T12:43:49.548Z,2.00
2022-09-14T12:47:28.683Z,1.80
2022-09-14T12:50:53.016Z,1.65
2022-09-14T12:54:49.209Z,2.45
2022-09-14T12:58:41.934Z,2.00
2022-09-14T13:02:23.014Z,1.70
2022-09-14T13:05:46.026Z,1.73
2022-09-14T13:09:21.187Z,1.60
2022-09-14T13:12:48.980Z,1.67
2022-09-14T13:16:17.731Z,2.08
2022-09-14T13:19:39.952Z,1.75
2022-09-14T13:23:03.333Z,2.53
2022-09-14T13:26:29.956Z,1.90
2022-09-14T13:30:02.817Z,2.10
2022-09-14T13:33:26.503Z,2.63
2022-09-14T13:36:49.837Z,2.10
2022-09-14T13:40:17.162Z,2.28
2022-09-14T13:43:41.966Z,2.45
2022-09-14T13:47:06.878Z,2.33
2022-09-14T13:50:30.113Z,2.00
2022-09-14T13:53:58.025Z,2.00
2022-09-14T13:57:23.296Z,2.28
2022-09-14T14:01:02.331Z,2.05
2022-09-14T14:04:37.911Z,2.67
2022-09-14T14:08:02.352Z,2.28
2022-09-14T14:11:45.899Z,2.03
2022-09-14T14:15:28.967Z,2.40
2022-09-14T14:18:56.550Z,2.40
2022-09-14T14:22:31.766Z,2.67
2022-09-14T14:26:06.029Z,2.92
2022-09-14T14:29:28.046Z,5.90
2022-09-14T14:32:55.207Z,4.32
2022-09-14T14:36:19.993Z,3.38
2022-09-14T14:39:44.386Z,2.53
2022-09-14T14:43:18.712Z,2.60
2022-09-14T14:46:42.717Z,2.67
2022-09-14T14:50:13.343Z,2.45
2022-09-14T14:53:35.828Z,3.28
2022-09-14T14:56:58.464Z,2.97
2022-09-14T15:00:24.998Z,3.00
2022-09-14T15:03:48.010Z,3.40
2022-09-14T15:07:10.282Z,3.58
2022-09-14T15:10:32.594Z,2.97
2022-09-14T15:13:55.441Z,3.25
2022-09-14T15:17:19.180Z,3.45
2022-09-14T15:20:42.224Z,3.00
2022-09-14T15:24:05.262Z,3.10
2022-09-14T15:27:27.546Z,3.33
2022-09-14T15:30:50.320Z,3.35
2022-09-14T15:34:12.874Z,3.22
2022-09-14T15:37:35.372Z,3.97
2022-09-14T15:40:57.676Z,3.90
2022-09-14T15:44:20.254Z,4.35
2022-09-14T15:47:44.740Z,4.57
2022-09-14T15:51:12.036Z,5.18
2022-09-14T15:54:37.428Z,5.45
2022-09-14T15:58:00.323Z,5.75
2022-09-14T16:01:23.459Z,40.22
2022-09-14T16:04:47.175Z,10.02
2022-09-14T16:08:09.302Z,8.55
2022-09-14T16:11:32.233Z,7.32
2022-09-14T16:14:55.629Z,7.90
2022-09-14T16:18:18.284Z,7.60
2022-09-14T16:21:41.963Z,7.35
2022-09-14T16:25:04.781Z,8.40
2022-09-14T16:28:28.370Z,8.70
2022-09-14T16:31:52.286Z,10.50
2022-09-14T16:35:16.767Z,10.18
2022-09-14T16:38:41.387Z,12.45
2022-09-14T16:42:04.211Z,10.93
2022-09-14T16:45:27.294Z,15.30
2022-09-14T16:48:50.823Z,9.05
2022-09-14T16:52:12.878Z,9.13
2022-09-14T16:55:35.323Z,8.98
2022-09-14T16:58:59.136Z,8.88
2022-09-14T17:02:21.353Z,7.68
2022-09-14T17:05:43.418Z,7.55
2022-09-14T17:09:14.756Z,7.47
2022-09-14T17:12:36.741Z,7.88
2022-09-14T17:16:07.146Z,8.15
2022-09-14T17:19:29.349Z,8.48
2022-09-14T17:22:51.653Z,9.15
2022-09-14T17:26:15.821Z,8.82
2022-09-14T17:29:40.334Z,7.88
2022-09-14T17:33:02.553Z,8.13
2022-09-14T17:36:25.355Z,7.68
2022-09-14T17:39:48.058Z,8.00
2022-09-14T17:43:11.559Z,8.73
2022-09-14T17:46:35.892Z,9.18
2022-09-14T17:50:00.565Z,8.75
2022-09-14T17:53:23.430Z,9.30
2022-09-14T17:56:46.135Z,9.98
2022-09-14T18:00:09.512Z,11.40
2022-09-14T18:03:32.082Z,12.23
2022-09-14T18:06:54.523Z,12.40
2022-09-14T18:10:17.798Z,12.05
2022-09-14T18:13:44.863Z,11.23
2022-09-14T18:17:07.104Z,10.98
2022-09-14T18:20:29.122Z,10.75
2022-09-14T18:23:52.694Z,10.90
2022-09-14T18:27:14.933Z,11.10
2022-09-14T18:30:41.678Z,10.90
2022-09-14T18:34:05.702Z,10.02
2022-09-14T18:37:27.976Z,10.48
2022-09-14T18:40:50.406Z,9.60
2022-09-14T18:44:15.301Z,9.60
2022-09-14T18:47:37.328Z,9.15
2022-09-14T18:51:04.585Z,9.32
2022-09-14T18:54:27.697Z,9.82
2022-09-14T18:57:51.235Z,9.00
2022-09-14T19:01:15.264Z,9.07
2022-09-14T19:04:39.267Z,8.48
2022-09-14T19:08:02.268Z,8.05
2022-09-14T19:11:29.119Z,7.85
2022-09-14T19:14:51.924Z,8.02
2022-09-14T19:18:19.882Z,7.85
2022-09-14T19:21:45.738Z,8.38
2022-09-14T19:25:09.112Z,7.53
2022-09-14T19:28:32.152Z,8.10
2022-09-14T19:31:55.706Z,8.32
2022-09-14T19:35:18.989Z,8.48
2022-09-14T19:38:42.806Z,8.10
2022-09-14T19:42:06.062Z,9.50
2022-09-14T19:45:31.328Z,9.30
2022-09-14T19:48:54.841Z,8.50
2022-09-14T19:52:16.806Z,7.78
2022-09-14T19:55:39.483Z,8.23
2022-09-14T19:59:09.407Z,8.48
2022-09-14T20:02:35.933Z,9.10
2022-09-14T20:06:09.440Z,9.70
2022-09-14T20:09:33.730Z,9.45
2022-09-14T20:12:55.746Z,10.05
2022-09-14T20:16:28.800Z,10.00
2022-09-14T20:19:50.831Z,10.07
2022-09-14T20:23:12.858Z,9.32
2022-09-14T20:26:34.984Z,9.10
2022-09-14T20:29:56.952Z,10.02
2022-09-14T20:33:19.128Z,9.32
2022-09-14T20:36:41.378Z,9.60
2022-09-14T20:40:04.488Z,9.20
2022-09-14T20:43:26.721Z,9.65
2022-09-14T20:46:49.810Z,10.45
2022-09-14T20:50:11.981Z,9.27
2022-09-14T20:53:36.624Z,9.50
2022-09-14T20:57:03.501Z,9.57
2022-09-14T21:00:26.470Z,9.50
2022-09-14T21:03:50.344Z,8.48
2022-09-14T21:07:12.723Z,10.23
2022-09-14T21:10:38.302Z,10.32
2022-09-14T21:14:01.004Z,10.38
2022-09-14T21:17:23.206Z,9.07
2022-09-14T21:20:45.245Z,9.25
2022-09-14T21:24:10.426Z,10.05
2022-09-14T21:27:32.461Z,9.38
2022-09-14T21:31:07.810Z,8.88
2022-09-14T21:34:30.306Z,9.10
2022-09-14T21:37:52.357Z,8.30
2022-09-14T21:41:14.406Z,8.45
2022-09-14T21:44:37.929Z,9.18
2022-09-14T21:47:59.956Z,9.63
2022-09-14T21:51:25.210Z,9.25
2022-09-14T21:54:47.380Z,8.82
2022-09-14T21:58:09.554Z,9.13
2022-09-14T22:01:31.654Z,10.07
2022-09-14T22:04:53.901Z,10.15
2022-09-14T22:08:16.294Z,9.48
2022-09-14T22:11:39.408Z,9.48
2022-09-14T22:15:01.414Z,8.50
2022-09-14T22:18:23.497Z,8.50
2022-09-14T22:21:46.341Z,8.40
2022-09-14T22:25:08.643Z,8.75
2022-09-14T22:28:31.016Z,8.75
2022-09-14T22:31:53.070Z,8.60
2022-09-14T22:35:15.074Z,8.45
2022-09-14T22:38:37.176Z,9.02
2022-09-14T22:41:59.378Z,8.18
2022-09-14T22:45:21.431Z,8.00
2022-09-14T22:48:43.629Z,9.23
2022-09-14T22:52:05.694Z,7.93
2022-09-14T22:55:28.699Z,8.93
2022-09-14T22:58:51.129Z,8.27
2022-09-14T23:02:13.402Z,8.55
2022-09-14T23:05:37.679Z,8.60
2022-09-14T23:09:00.604Z,9.32
2022-09-14T23:12:22.611Z,8.77
2022-09-14T23:15:44.897Z,8.00
2022-09-14T23:19:07.123Z,8.75
2022-09-14T23:22:29.145Z,8.43
2022-09-14T23:25:51.091Z,9.38
2022-09-14T23:29:15.807Z,9.63
2022-09-14T23:32:37.843Z,9.38
2022-09-14T23:36:00.081Z,10.50
2022-09-14T23:39:22.068Z,9.95
2022-09-14T23:42:44.410Z,9.73
2022-09-14T23:46:06.537Z,9.45
2022-09-14T23:49:28.815Z,9.88
2022-09-14T23:52:50.844Z,10.57
2022-09-14T23:56:13.379Z,10.52
2022-09-14T23:59:35.364Z,10.52
